Huntly, United Kingdom
Current Conditions -  °F | °C
As of 11:50 PM on Friday 21 Nov 2014 (Local Time) from EGQS Reporting Station
Light Rain Light Rain  
Wind Chill: 41°   Ceiling: 7000
Heat Index: 48°   Visibility: 6mi
Dew Point: 37°   Wind: 23mph
Humidity: 66%   Direction: 140°SE
Pressure: 29.83"   Gusts: NA
Location:  57.45°N, 2.79°W
Report Text: EGQS 212350Z 14020KT 9999 -RA FEW024 SCT032 BKN070 09/03 Q1010 BLU
Loading
Personal Weather Stations






























Interactive Weather Map New forecast layout! Learn more

10-Day Weather Forecast

Advertisements
Track Severe Weather on mobile